createdAt,value
2019-01-29T00:01:42.697Z,36.93
2019-01-29T00:04:14.004Z,37.27
2019-01-29T00:06:43.658Z,37.37
2019-01-29T00:09:13.378Z,37.00
2019-01-29T00:11:43.056Z,36.47
2019-01-29T00:14:12.707Z,37.10
2019-01-29T00:16:44.044Z,36.97
2019-01-29T00:19:13.705Z,36.70
2019-01-29T00:21:43.290Z,36.87
2019-01-29T00:24:12.942Z,37.20
2019-01-29T00:26:42.625Z,36.50
2019-01-29T00:29:12.231Z,36.90
2019-01-29T00:31:42.094Z,36.97
2019-01-29T00:34:11.754Z,36.47
2019-01-29T00:36:41.544Z,36.73
2019-01-29T00:39:11.195Z,36.53
2019-01-29T00:41:41.011Z,36.47
2019-01-29T00:44:10.654Z,36.60
2019-01-29T00:46:40.437Z,36.07
2019-01-29T00:49:10.166Z,36.13
2019-01-29T00:51:39.828Z,36.47
2019-01-29T00:54:09.915Z,36.73
2019-01-29T00:56:39.438Z,36.57
2019-01-29T00:59:09.088Z,37.00
2019-01-29T01:01:38.628Z,36.07
2019-01-29T01:04:08.474Z,36.67
2019-01-29T01:06:38.200Z,36.80
2019-01-29T01:09:09.173Z,35.97
2019-01-29T01:11:38.815Z,35.67
2019-01-29T01:14:08.671Z,36.20
2019-01-29T01:16:38.350Z,35.87
2019-01-29T01:19:07.989Z,36.20
2019-01-29T01:21:38.171Z,36.77
2019-01-29T01:24:07.866Z,36.47
2019-01-29T01:26:37.524Z,36.10
2019-01-29T01:29:07.267Z,36.50
2019-01-29T01:31:36.951Z,37.00
2019-01-29T01:34:06.660Z,36.80
2019-01-29T01:36:36.256Z,36.33
2019-01-29T01:39:08.291Z,36.60
2019-01-29T01:41:37.953Z,36.37
2019-01-29T01:44:07.615Z,37.33
2019-01-29T01:46:37.292Z,36.70
2019-01-29T01:49:06.949Z,36.67
2019-01-29T01:51:36.617Z,36.30
2019-01-29T01:54:06.493Z,36.63
2019-01-29T01:56:36.142Z,37.10
2019-01-29T01:59:05.855Z,35.90
2019-01-29T02:01:35.595Z,35.63
2019-01-29T02:04:05.553Z,36.73
2019-01-29T02:06:35.555Z,36.67
2019-01-29T02:09:08.607Z,36.27
2019-01-29T02:11:38.255Z,36.37
2019-01-29T02:14:08.204Z,35.83
2019-01-29T02:16:37.981Z,36.17
2019-01-29T02:19:07.631Z,35.50
2019-01-29T02:21:37.276Z,36.47
2019-01-29T02:24:07.059Z,36.00
2019-01-29T02:26:36.714Z,35.93
2019-01-29T02:29:06.360Z,36.17
2019-01-29T02:31:36.058Z,36.17
2019-01-29T02:34:05.666Z,36.50
2019-01-29T02:36:35.545Z,35.83
2019-01-29T02:39:08.019Z,35.83
2019-01-29T02:41:37.675Z,35.87
2019-01-29T02:44:07.314Z,36.00
2019-01-29T02:46:36.992Z,35.40
2019-01-29T02:49:06.665Z,34.83
2019-01-29T02:51:36.331Z,35.43
2019-01-29T02:54:06.488Z,35.97
2019-01-29T02:56:36.009Z,35.63
2019-01-29T02:59:05.972Z,35.77
2019-01-29T03:01:35.645Z,34.93
2019-01-29T03:04:05.308Z,35.40
2019-01-29T03:06:34.947Z,34.97
2019-01-29T03:09:07.414Z,35.10
2019-01-29T03:11:37.070Z,35.43
2019-01-29T03:14:06.820Z,35.50
2019-01-29T03:16:36.503Z,35.33
2019-01-29T03:19:06.168Z,35.00
2019-01-29T03:21:35.824Z,35.37
2019-01-29T03:24:06.717Z,35.37
2019-01-29T03:26:36.600Z,35.33
2019-01-29T03:29:06.952Z,35.27
2019-01-29T03:31:36.648Z,35.73
2019-01-29T03:34:06.310Z,35.23
2019-01-29T03:36:35.957Z,35.70
2019-01-29T03:39:08.108Z,35.60
2019-01-29T03:41:37.990Z,35.40
2019-01-29T03:44:07.957Z,35.63
2019-01-29T03:46:37.646Z,35.50
2019-01-29T03:49:07.492Z,35.23
2019-01-29T03:51:37.087Z,35.20
2019-01-29T03:54:06.781Z,35.37
2019-01-29T03:56:36.505Z,35.20
2019-01-29T03:59:06.422Z,35.20
2019-01-29T04:01:36.098Z,35.27
2019-01-29T04:04:05.754Z,35.23
2019-01-29T04:06:35.404Z,35.10
2019-01-29T04:09:08.742Z,35.00
2019-01-29T04:11:38.381Z,35.20
2019-01-29T04:14:08.026Z,35.30
2019-01-29T04:16:37.692Z,35.23
2019-01-29T04:19:07.336Z,35.17
2019-01-29T04:21:37.076Z,35.27
2019-01-29T04:24:06.735Z,36.00
2019-01-29T04:26:36.378Z,36.00
2019-01-29T04:29:06.028Z,35.47
2019-01-29T04:31:35.713Z,35.73
2019-01-29T04:34:05.659Z,35.37
2019-01-29T04:36:35.321Z,35.77
2019-01-29T04:39:07.384Z,35.30
2019-01-29T04:41:37.048Z,35.30
2019-01-29T04:44:07.132Z,35.03
2019-01-29T04:46:36.735Z,35.53
2019-01-29T04:49:06.394Z,34.70
2019-01-29T04:51:36.061Z,35.80
2019-01-29T04:54:06.135Z,35.77
2019-01-29T04:56:35.809Z,35.37
2019-01-29T04:59:05.716Z,35.43
2019-01-29T05:01:35.396Z,35.30
2019-01-29T05:04:05.653Z,36.37
2019-01-29T05:06:35.299Z,35.40
2019-01-29T05:09:08.403Z,35.57
2019-01-29T05:11:37.960Z,35.23
2019-01-29T05:14:07.784Z,35.37
2019-01-29T05:16:37.463Z,35.33
2019-01-29T05:19:07.111Z,35.33
2019-01-29T05:21:36.756Z,35.40
2019-01-29T05:24:07.335Z,35.70
2019-01-29T05:26:37.261Z,35.70
2019-01-29T05:29:06.908Z,35.33
2019-01-29T05:31:36.590Z,35.90
2019-01-29T05:34:06.240Z,36.27
2019-01-29T05:36:35.894Z,36.00
2019-01-29T05:39:09.028Z,35.70
2019-01-29T05:41:38.675Z,36.00
2019-01-29T05:44:08.339Z,35.80
2019-01-29T05:46:37.997Z,36.57
2019-01-29T05:49:07.656Z,36.97
2019-01-29T05:51:37.299Z,36.47
2019-01-29T05:54:15.862Z,37.03
2019-01-29T05:56:38.329Z,36.63
2019-01-29T05:59:08.319Z,37.03
2019-01-29T06:01:37.976Z,37.43
2019-01-29T06:04:07.637Z,36.90
2019-01-29T06:06:37.279Z,36.43
2019-01-29T06:09:09.838Z,37.20
2019-01-29T06:11:39.496Z,36.33
2019-01-29T06:14:10.817Z,36.80
2019-01-29T06:16:40.496Z,37.17
2019-01-29T06:19:10.148Z,36.80
2019-01-29T06:21:42.388Z,36.93
2019-01-29T06:24:12.212Z,37.43
2019-01-29T06:26:43.526Z,37.30
2019-01-29T06:29:13.168Z,36.87
2019-01-29T06:31:42.841Z,36.60
2019-01-29T06:34:12.488Z,36.67
2019-01-29T06:36:42.198Z,35.93
2019-01-29T06:39:11.873Z,36.57
2019-01-29T06:41:45.055Z,36.77
2019-01-29T06:44:14.858Z,36.77
2019-01-29T06:46:44.393Z,36.50
2019-01-29T06:49:17.033Z,35.93
2019-01-29T06:51:46.698Z,35.63
2019-01-29T06:54:16.366Z,36.43
2019-01-29T06:56:46.015Z,36.30
2019-01-29T06:59:16.818Z,36.37
2019-01-29T07:01:46.559Z,36.47
2019-01-29T07:04:16.221Z,35.83
2019-01-29T07:06:45.787Z,36.17
2019-01-29T07:09:15.474Z,36.80
2019-01-29T07:11:45.149Z,37.00
2019-01-29T07:14:14.817Z,36.70
2019-01-29T07:16:46.139Z,37.40
2019-01-29T07:19:17.430Z,37.30
2019-01-29T07:21:47.109Z,37.27
2019-01-29T07:24:16.789Z,37.77
2019-01-29T07:26:46.463Z,37.73
2019-01-29T07:29:16.106Z,38.23
2019-01-29T07:31:45.796Z,38.40
2019-01-29T07:34:15.463Z,38.47
2019-01-29T07:36:45.119Z,38.10
2019-01-29T07:39:14.992Z,38.50
2019-01-29T07:41:44.648Z,38.40
2019-01-29T07:44:14.307Z,37.63
2019-01-29T07:46:43.995Z,38.40
2019-01-29T07:49:13.560Z,37.80
2019-01-29T07:51:43.223Z,38.03
2019-01-29T07:54:12.886Z,38.20
2019-01-29T07:56:42.529Z,37.77
2019-01-29T07:59:12.182Z,38.30
2019-01-29T08:01:41.866Z,37.80
2019-01-29T08:04:11.514Z,38.03
2019-01-29T08:06:41.164Z,38.30
2019-01-29T08:09:11.047Z,37.93
2019-01-29T08:11:40.771Z,37.77
2019-01-29T08:14:10.429Z,38.40
2019-01-29T08:16:40.111Z,37.80
2019-01-29T08:19:09.766Z,37.73
2019-01-29T08:21:39.433Z,37.90
2019-01-29T08:24:09.096Z,37.93
2019-01-29T08:26:38.818Z,38.17
2019-01-29T08:29:08.775Z,38.10
2019-01-29T08:31:38.458Z,38.17
2019-01-29T08:34:08.124Z,37.47
2019-01-29T08:36:37.787Z,37.60
2019-01-29T08:39:09.291Z,36.80
2019-01-29T08:41:38.965Z,37.57
2019-01-29T08:44:08.625Z,37.17
2019-01-29T08:46:38.304Z,37.60
2019-01-29T08:49:08.270Z,37.37
2019-01-29T08:51:37.922Z,37.23
2019-01-29T08:54:07.694Z,36.70
2019-01-29T08:56:37.489Z,37.37
2019-01-29T08:59:07.404Z,36.70
2019-01-29T09:01:37.105Z,37.00
2019-01-29T09:04:06.763Z,37.03
2019-01-29T09:06:37.883Z,36.80
2019-01-29T09:09:09.851Z,37.00
2019-01-29T09:11:39.522Z,37.07
2019-01-29T09:14:09.183Z,37.33
2019-01-29T09:16:38.857Z,37.10
2019-01-29T09:19:08.516Z,37.40
2019-01-29T09:21:38.176Z,37.57
2019-01-29T09:24:07.766Z,37.27
2019-01-29T09:26:37.426Z,37.50
2019-01-29T09:29:07.097Z,37.20
2019-01-29T09:31:36.921Z,37.53
2019-01-29T09:34:06.587Z,37.77
2019-01-29T09:36:36.241Z,37.30
2019-01-29T09:39:09.566Z,37.20
2019-01-29T09:41:39.730Z,36.87
2019-01-29T09:44:10.889Z,37.20
2019-01-29T09:46:40.560Z,36.77
2019-01-29T09:49:11.279Z,36.43
2019-01-29T09:51:41.125Z,36.80
2019-01-29T09:54:11.194Z,36.87
2019-01-29T09:56:40.852Z,36.37
2019-01-29T09:59:10.520Z,36.47
2019-01-29T10:01:40.191Z,36.90
2019-01-29T10:04:09.774Z,37.03
2019-01-29T10:06:39.423Z,36.50
2019-01-29T10:09:10.207Z,36.77
2019-01-29T10:11:39.853Z,37.47
2019-01-29T10:14:11.658Z,37.30
2019-01-29T10:16:41.327Z,36.97
2019-01-29T10:19:11.052Z,36.50
2019-01-29T10:21:40.709Z,36.70
2019-01-29T10:24:10.391Z,37.47
2019-01-29T10:26:40.159Z,37.23
2019-01-29T10:29:09.800Z,36.60
2019-01-29T10:31:39.490Z,37.53
2019-01-29T10:34:09.440Z,37.00
2019-01-29T10:36:39.095Z,36.43
2019-01-29T10:39:10.731Z,37.30
2019-01-29T10:41:40.384Z,37.20
2019-01-29T10:44:10.036Z,37.03
2019-01-29T10:46:40.978Z,37.20
2019-01-29T10:49:10.643Z,37.00
2019-01-29T10:51:40.297Z,36.73
2019-01-29T10:54:09.979Z,37.37
2019-01-29T10:56:39.714Z,37.40
2019-01-29T10:59:09.398Z,37.17
2019-01-29T11:01:39.085Z,37.07
2019-01-29T11:04:09.413Z,37.83
2019-01-29T11:06:39.066Z,37.40
2019-01-29T11:09:12.015Z,37.43
2019-01-29T11:11:41.667Z,37.37
2019-01-29T11:14:11.335Z,37.00
2019-01-29T11:16:42.047Z,37.23
2019-01-29T11:19:11.690Z,37.47
2019-01-29T11:21:41.637Z,37.17
2019-01-29T11:24:11.407Z,37.77
2019-01-29T11:26:41.076Z,36.97
2019-01-29T11:29:10.964Z,36.87
2019-01-29T11:31:42.078Z,37.33
2019-01-29T11:34:11.746Z,37.30
2019-01-29T11:36:41.631Z,37.03
2019-01-29T11:39:12.208Z,37.90
2019-01-29T11:41:41.867Z,37.97
2019-01-29T11:44:11.526Z,37.93
2019-01-29T11:46:42.468Z,36.83
2019-01-29T11:49:12.152Z,37.23
2019-01-29T11:51:41.822Z,37.93
2019-01-29T11:54:11.566Z,37.63
2019-01-29T11:56:41.214Z,37.17
2019-01-29T11:59:10.870Z,38.10
2019-01-29T12:01:40.549Z,37.20
2019-01-29T12:04:10.411Z,37.93
2019-01-29T12:06:40.131Z,36.70
2019-01-29T12:09:10.270Z,37.37
2019-01-29T12:11:40.010Z,37.33
2019-01-29T12:14:09.671Z,37.83
2019-01-29T12:16:39.354Z,37.50
2019-01-29T12:19:09.137Z,37.50
2019-01-29T12:21:38.791Z,37.07
2019-01-29T12:24:08.464Z,37.40
2019-01-29T12:26:38.130Z,37.80
2019-01-29T12:29:07.766Z,37.07
2019-01-29T12:31:37.454Z,37.23
2019-01-29T12:34:07.131Z,37.33
2019-01-29T12:36:36.771Z,36.57
2019-01-29T12:39:09.961Z,36.87
2019-01-29T12:41:39.649Z,37.70
2019-01-29T12:44:09.297Z,37.60
2019-01-29T12:46:38.994Z,37.23
2019-01-29T12:49:08.861Z,37.33
2019-01-29T12:51:39.880Z,37.03
2019-01-29T12:54:10.068Z,38.07
2019-01-29T12:56:39.733Z,38.17
2019-01-29T12:59:09.391Z,37.33
2019-01-29T13:01:39.129Z,37.00
2019-01-29T13:04:08.787Z,38.50
2019-01-29T13:06:39.147Z,37.70
2019-01-29T13:09:10.619Z,37.03
2019-01-29T13:11:40.360Z,37.67
2019-01-29T13:14:10.032Z,37.60
2019-01-29T13:16:39.699Z,36.77
2019-01-29T13:19:09.365Z,37.50
2019-01-29T13:21:39.054Z,37.30
2019-01-29T13:24:08.681Z,38.03
2019-01-29T13:26:38.335Z,37.20
2019-01-29T13:29:08.283Z,38.40
2019-01-29T13:31:37.981Z,38.17
2019-01-29T13:34:07.642Z,38.30
2019-01-29T13:36:37.297Z,37.63
2019-01-29T13:39:08.903Z,38.33
2019-01-29T13:41:38.572Z,37.77
2019-01-29T13:44:08.209Z,37.77
2019-01-29T13:46:37.893Z,38.33
2019-01-29T13:49:07.628Z,37.67
2019-01-29T13:51:37.281Z,38.27
2019-01-29T13:54:06.974Z,38.03
2019-01-29T13:56:39.006Z,37.87
2019-01-29T13:59:08.213Z,37.97
2019-01-29T14:01:37.892Z,37.63
2019-01-29T14:04:07.550Z,37.80
2019-01-29T14:06:37.211Z,38.07
2019-01-29T14:09:08.826Z,37.50
2019-01-29T14:11:38.580Z,37.60
2019-01-29T14:14:08.226Z,38.13
2019-01-29T14:16:37.894Z,38.20
2019-01-29T14:19:07.550Z,38.50
2019-01-29T14:21:37.135Z,38.23
2019-01-29T14:24:07.203Z,38.27
2019-01-29T14:26:36.791Z,39.00
2019-01-29T14:29:06.577Z,38.30
2019-01-29T14:31:36.255Z,38.57
2019-01-29T14:34:06.222Z,38.27
2019-01-29T14:36:36.071Z,38.27
2019-01-29T14:39:15.925Z,38.83
2019-01-29T14:41:45.777Z,39.00
2019-01-29T14:44:15.757Z,39.57
2019-01-29T14:46:46.227Z,37.87
2019-01-29T14:49:15.896Z,38.10
2019-01-29T14:51:46.638Z,38.90
2019-01-29T14:54:16.457Z,39.13
2019-01-29T14:56:46.116Z,38.13
2019-01-29T14:59:15.799Z,38.37
2019-01-29T15:01:45.845Z,38.10
2019-01-29T15:04:15.502Z,37.97
2019-01-29T15:06:45.195Z,37.53
2019-01-29T15:09:17.416Z,37.67
2019-01-29T15:11:46.578Z,37.40
2019-01-29T15:14:16.241Z,37.53
2019-01-29T15:16:47.537Z,36.97
2019-01-29T15:19:17.218Z,37.10
2019-01-29T15:21:48.711Z,37.10
2019-01-29T15:24:19.755Z,36.67
2019-01-29T15:26:49.420Z,36.80
2019-01-29T15:29:19.117Z,37.03
2019-01-29T15:31:48.761Z,37.70
2019-01-29T15:34:18.402Z,38.93
2019-01-29T15:36:48.082Z,38.43
2019-01-29T15:39:17.732Z,38.87
2019-01-29T15:41:47.387Z,38.03
2019-01-29T15:44:17.068Z,37.77
2019-01-29T15:46:46.783Z,37.90
2019-01-29T15:49:16.510Z,38.10
2019-01-29T15:51:46.307Z,37.67
2019-01-29T15:54:16.036Z,38.00
2019-01-29T15:56:46.293Z,37.40
2019-01-29T15:59:15.989Z,37.83
2019-01-29T16:01:45.650Z,37.47
2019-01-29T16:04:16.249Z,38.03
2019-01-29T16:06:45.926Z,38.07
2019-01-29T16:09:18.079Z,37.40
2019-01-29T16:11:47.738Z,38.03
2019-01-29T16:14:17.409Z,36.27
2019-01-29T16:16:47.128Z,37.57
2019-01-29T16:19:17.892Z,37.87
2019-01-29T16:21:47.965Z,39.03
2019-01-29T16:24:17.607Z,37.40
2019-01-29T16:26:47.266Z,38.03
2019-01-29T16:29:16.945Z,38.20
2019-01-29T16:31:46.664Z,37.60
2019-01-29T16:34:16.330Z,37.93
2019-01-29T16:36:45.935Z,37.50
2019-01-29T16:39:15.591Z,37.30
2019-01-29T16:41:45.261Z,38.23
2019-01-29T16:44:15.050Z,37.67
2019-01-29T16:46:44.818Z,37.83
2019-01-29T16:49:14.469Z,37.63
2019-01-29T16:51:44.130Z,38.07
2019-01-29T16:54:13.777Z,38.70
2019-01-29T16:56:43.462Z,38.57
2019-01-29T16:59:13.148Z,38.00
2019-01-29T17:01:42.813Z,38.17
2019-01-29T17:04:12.494Z,38.40
2019-01-29T17:06:43.260Z,39.10
2019-01-29T17:09:13.305Z,40.03
2019-01-29T17:11:42.967Z,38.57
2019-01-29T17:14:12.648Z,39.50
2019-01-29T17:16:42.357Z,39.93
2019-01-29T17:19:12.123Z,39.37
2019-01-29T17:21:41.803Z,39.03
2019-01-29T17:24:11.467Z,38.70
2019-01-29T17:26:41.119Z,39.90
2019-01-29T17:29:10.779Z,39.70
2019-01-29T17:31:40.455Z,40.17
2019-01-29T17:34:10.109Z,39.63
2019-01-29T17:36:39.806Z,39.53
2019-01-29T17:39:09.642Z,40.40
2019-01-29T17:41:39.296Z,40.47
2019-01-29T17:44:08.971Z,41.80
2019-01-29T17:46:39.638Z,40.67
2019-01-29T17:49:09.296Z,40.27
2019-01-29T17:51:38.970Z,39.03
2019-01-29T17:54:09.002Z,40.77
2019-01-29T17:56:38.723Z,41.07
2019-01-29T17:59:08.482Z,40.30
2019-01-29T18:01:38.322Z,40.60
2019-01-29T18:04:08.051Z,40.40
2019-01-29T18:06:37.792Z,40.17
2019-01-29T18:09:09.933Z,40.80
2019-01-29T18:11:39.592Z,39.03
2019-01-29T18:14:09.262Z,39.97
2019-01-29T18:16:38.941Z,38.97
2019-01-29T18:19:08.562Z,39.33
2019-01-29T18:21:39.877Z,39.37
2019-01-29T18:24:09.501Z,39.10
2019-01-29T18:26:39.147Z,39.33
2019-01-29T18:29:08.826Z,39.73
2019-01-29T18:31:38.467Z,39.70
2019-01-29T18:34:08.124Z,39.43
2019-01-29T18:36:37.818Z,39.63
2019-01-29T18:39:08.986Z,40.03
2019-01-29T18:41:38.776Z,41.80
2019-01-29T18:44:08.365Z,40.10
2019-01-29T18:46:38.008Z,40.47
2019-01-29T18:49:07.676Z,40.27
2019-01-29T18:51:37.354Z,40.20
2019-01-29T18:54:07.078Z,40.43
2019-01-29T18:56:36.747Z,40.00
2019-01-29T18:59:08.217Z,41.17
2019-01-29T19:01:37.936Z,40.10
2019-01-29T19:04:09.137Z,40.10
2019-01-29T19:06:38.893Z,41.60
2019-01-29T19:09:09.148Z,40.00
2019-01-29T19:11:38.858Z,39.47
2019-01-29T19:14:08.496Z,40.93
2019-01-29T19:16:41.615Z,42.10
2019-01-29T19:19:11.285Z,41.17
2019-01-29T19:21:40.987Z,40.53
2019-01-29T19:24:10.600Z,39.63
2019-01-29T19:26:40.224Z,39.77
2019-01-29T19:29:09.904Z,39.40
2019-01-29T19:31:39.564Z,40.00
2019-01-29T19:34:11.092Z,40.10
2019-01-29T19:36:40.717Z,39.93
2019-01-29T19:39:10.640Z,40.50
2019-01-29T19:41:40.286Z,39.60
2019-01-29T19:44:09.980Z,41.73
2019-01-29T19:46:39.636Z,40.53
2019-01-29T19:49:10.957Z,40.90
2019-01-29T19:51:40.688Z,40.97
2019-01-29T19:54:10.324Z,39.83
2019-01-29T19:56:40.006Z,39.20
2019-01-29T19:59:09.570Z,39.30
2019-01-29T20:01:39.169Z,40.27
2019-01-29T20:04:08.848Z,40.20
2019-01-29T20:06:38.562Z,38.93
2019-01-29T20:09:10.667Z,39.93
2019-01-29T20:11:40.349Z,40.70
2019-01-29T20:14:10.075Z,40.47
2019-01-29T20:16:39.824Z,40.37
2019-01-29T20:19:09.522Z,39.80
2019-01-29T20:21:39.159Z,40.20
2019-01-29T20:24:08.827Z,39.80
2019-01-29T20:26:38.511Z,38.57
2019-01-29T20:29:08.180Z,40.63
2019-01-29T20:31:37.847Z,39.40
2019-01-29T20:34:07.603Z,39.93
2019-01-29T20:36:37.315Z,38.83
2019-01-29T20:39:09.762Z,40.17
2019-01-29T20:41:39.641Z,40.43
2019-01-29T20:44:09.340Z,38.93
2019-01-29T20:46:41.468Z,39.33
2019-01-29T20:49:13.846Z,38.80
2019-01-29T20:51:43.522Z,37.70
2019-01-29T20:54:13.271Z,37.83
2019-01-29T20:56:42.997Z,37.63
2019-01-29T20:59:12.614Z,37.67
2019-01-29T21:01:42.262Z,36.70
2019-01-29T21:04:11.974Z,37.20
2019-01-29T21:06:41.858Z,37.20
2019-01-29T21:09:11.828Z,36.53
2019-01-29T21:11:41.524Z,36.70
2019-01-29T21:14:11.206Z,37.17
2019-01-29T21:16:40.867Z,36.50
2019-01-29T21:19:11.268Z,37.67
2019-01-29T21:21:41.059Z,36.93
2019-01-29T21:24:10.724Z,36.90
2019-01-29T21:26:40.406Z,36.60
2019-01-29T21:29:10.105Z,36.50
2019-01-29T21:31:39.747Z,36.47
2019-01-29T21:34:09.402Z,36.67
2019-01-29T21:36:39.082Z,36.63
2019-01-29T21:39:10.128Z,35.93
2019-01-29T21:41:39.786Z,36.30
2019-01-29T21:44:12.205Z,35.63
2019-01-29T21:46:41.859Z,36.53
2019-01-29T21:49:13.897Z,36.97
2019-01-29T21:51:42.922Z,36.10
2019-01-29T21:54:12.654Z,36.40
2019-01-29T21:56:42.301Z,35.50
2019-01-29T21:59:18.270Z,35.57
2019-01-29T22:01:47.925Z,35.77
2019-01-29T22:04:17.581Z,35.77
2019-01-29T22:06:47.447Z,36.27
2019-01-29T22:09:17.105Z,36.77
2019-01-29T22:11:46.756Z,36.23
2019-01-29T22:14:16.429Z,36.47
2019-01-29T22:16:46.082Z,36.17
2019-01-29T22:19:15.745Z,36.50
2019-01-29T22:21:45.438Z,36.40
2019-01-29T22:24:15.092Z,37.00
2019-01-29T22:26:44.761Z,36.87
2019-01-29T22:29:23.208Z,36.43
2019-01-29T22:31:45.750Z,35.80
2019-01-29T22:34:15.411Z,36.53
2019-01-29T22:36:45.029Z,36.57
2019-01-29T22:39:14.835Z,36.40
2019-01-29T22:41:44.482Z,36.37
2019-01-29T22:44:15.498Z,36.93
2019-01-29T22:46:46.113Z,36.80
2019-01-29T22:49:17.241Z,35.67
2019-01-29T22:51:48.975Z,35.10
2019-01-29T22:54:18.610Z,35.70
2019-01-29T22:56:49.355Z,36.47
2019-01-29T22:59:19.032Z,36.03
2019-01-29T23:01:48.996Z,36.40
2019-01-29T23:04:18.650Z,36.53
2019-01-29T23:06:53.291Z,36.47
2019-01-29T23:09:23.060Z,36.27
2019-01-29T23:11:52.940Z,35.30
2019-01-29T23:14:22.547Z,35.60
2019-01-29T23:16:52.217Z,35.37
2019-01-29T23:19:23.496Z,35.13
2019-01-29T23:21:54.647Z,34.90
2019-01-29T23:24:24.312Z,35.10
2019-01-29T23:26:53.978Z,35.03
2019-01-29T23:29:23.925Z,35.70
2019-01-29T23:31:53.568Z,35.70
2019-01-29T23:34:23.220Z,35.80
2019-01-29T23:36:52.824Z,34.80
2019-01-29T23:39:22.470Z,36.63
2019-01-29T23:41:52.130Z,36.03
2019-01-29T23:44:23.621Z,36.17
2019-01-29T23:46:53.311Z,35.33
2019-01-29T23:49:22.960Z,35.33
2019-01-29T23:51:54.086Z,35.93
2019-01-29T23:54:23.815Z,35.13
2019-01-29T23:56:53.464Z,36.03
2019-01-29T23:59:23.084Z,35.90
